createdAt,value
2018-09-14T00:00:15.410Z,14.30
2018-09-14T00:02:44.675Z,14.40
2018-09-14T00:05:13.978Z,14.30
2018-09-14T00:07:43.155Z,14.20
2018-09-14T00:10:12.423Z,14.20
2018-09-14T00:12:41.589Z,14.20
2018-09-14T00:15:10.999Z,14.20
2018-09-14T00:17:40.127Z,14.20
2018-09-14T00:20:09.337Z,14.30
2018-09-14T00:22:38.547Z,14.40
2018-09-14T00:25:08.796Z,14.40
2018-09-14T00:27:38.041Z,14.40
2018-09-14T00:30:07.276Z,14.50
2018-09-14T00:32:36.490Z,14.50
2018-09-14T00:35:06.992Z,14.50
2018-09-14T00:37:36.238Z,14.50
2018-09-14T00:40:05.627Z,14.50
2018-09-14T00:42:34.855Z,14.40
2018-09-14T00:45:04.295Z,14.30
2018-09-14T00:47:33.530Z,14.30
2018-09-14T00:50:02.717Z,14.40
2018-09-14T00:52:31.921Z,14.60
2018-09-14T00:55:01.206Z,14.70
2018-09-14T00:57:30.394Z,14.80
2018-09-14T00:59:59.604Z,14.70
2018-09-14T01:02:28.774Z,14.60
2018-09-14T01:04:59.142Z,14.60
2018-09-14T01:07:28.328Z,14.50
2018-09-14T01:09:57.540Z,14.50
2018-09-14T01:12:26.765Z,14.60
2018-09-14T01:14:56.091Z,14.60
2018-09-14T01:17:25.295Z,14.60
2018-09-14T01:19:54.495Z,14.50
2018-09-14T01:22:23.635Z,14.60
2018-09-14T01:24:54.657Z,14.60
2018-09-14T01:27:23.839Z,14.50
2018-09-14T01:29:53.004Z,14.40
2018-09-14T01:32:22.154Z,14.40
2018-09-14T01:34:51.525Z,14.40
2018-09-14T01:37:20.685Z,14.40
2018-09-14T01:39:49.891Z,14.40
2018-09-14T01:42:19.062Z,14.50
2018-09-14T01:44:48.342Z,14.60
2018-09-14T01:47:17.623Z,14.70
2018-09-14T01:49:46.799Z,14.70
2018-09-14T01:52:15.975Z,14.80
2018-09-14T01:54:45.340Z,14.80
2018-09-14T01:57:14.504Z,14.80
2018-09-14T01:59:43.658Z,14.80
2018-09-14T02:02:12.836Z,14.90
2018-09-14T02:04:45.634Z,14.90
2018-09-14T02:07:14.804Z,14.90
2018-09-14T02:09:44.027Z,14.90
2018-09-14T02:12:13.215Z,14.90
2018-09-14T02:14:46.897Z,15.00
2018-09-14T02:17:17.431Z,15.00
2018-09-14T02:19:46.613Z,14.90
2018-09-14T02:22:15.771Z,14.90
2018-09-14T02:24:45.137Z,15.00
2018-09-14T02:27:14.339Z,15.00
2018-09-14T02:29:43.543Z,15.00
2018-09-14T02:32:14.065Z,15.10
2018-09-14T02:34:43.375Z,15.10
2018-09-14T02:37:12.568Z,15.20
2018-09-14T02:39:41.748Z,15.10
2018-09-14T02:42:10.939Z,15.10
2018-09-14T02:44:40.159Z,15.10
2018-09-14T02:47:10.042Z,15.20
2018-09-14T02:49:39.232Z,15.20
2018-09-14T02:52:08.450Z,15.30
2018-09-14T02:54:37.930Z,15.30
2018-09-14T02:57:07.120Z,15.20
2018-09-14T02:59:36.295Z,15.20
2018-09-14T03:02:05.566Z,15.10
2018-09-14T03:04:35.955Z,15.00
2018-09-14T03:07:05.229Z,15.00
2018-09-14T03:09:34.401Z,15.00
2018-09-14T03:12:03.591Z,15.00
2018-09-14T03:14:33.882Z,15.00
2018-09-14T03:17:03.048Z,15.00
2018-09-14T03:19:32.287Z,15.00
2018-09-14T03:22:01.488Z,15.00
2018-09-14T03:24:30.880Z,14.90
2018-09-14T03:27:00.105Z,15.00
2018-09-14T03:29:29.303Z,15.00
2018-09-14T03:31:58.627Z,15.00
2018-09-14T03:34:27.995Z,15.00
2018-09-14T03:36:57.969Z,15.00
2018-09-14T03:39:27.279Z,15.10
2018-09-14T03:41:56.442Z,15.20
2018-09-14T03:44:27.061Z,15.20
2018-09-14T03:46:56.265Z,15.20
2018-09-14T03:49:25.529Z,15.30
2018-09-14T03:51:59.346Z,15.40
2018-09-14T03:54:28.576Z,15.40
2018-09-14T03:56:57.951Z,15.40
2018-09-14T03:59:27.105Z,15.40
2018-09-14T04:01:56.343Z,15.30
2018-09-14T04:04:25.546Z,15.30
2018-09-14T04:06:54.740Z,15.20
2018-09-14T04:09:23.917Z,15.20
2018-09-14T04:11:53.204Z,15.20
2018-09-14T04:14:22.560Z,15.20
2018-09-14T04:16:51.743Z,15.10
2018-09-14T04:19:20.953Z,15.20
2018-09-14T04:21:50.269Z,15.20
2018-09-14T04:24:19.553Z,15.20
2018-09-14T04:26:48.732Z,15.30
2018-09-14T04:29:17.997Z,15.30
2018-09-14T04:31:47.155Z,15.30
2018-09-14T04:34:16.523Z,15.30
2018-09-14T04:36:45.724Z,15.20
2018-09-14T04:39:14.927Z,15.30
2018-09-14T04:41:44.173Z,15.30
2018-09-14T04:44:13.591Z,15.30
2018-09-14T04:46:42.780Z,15.30
2018-09-14T04:49:11.997Z,15.30
2018-09-14T04:51:41.203Z,15.30
2018-09-14T04:54:10.637Z,15.30
2018-09-14T04:56:39.907Z,15.20
2018-09-14T04:59:09.090Z,15.10
2018-09-14T05:01:38.292Z,15.00
2018-09-14T05:04:07.752Z,15.00
2018-09-14T05:06:36.918Z,15.10
2018-09-14T05:09:07.418Z,15.10
2018-09-14T05:11:36.768Z,15.20
2018-09-14T05:14:06.094Z,15.10
2018-09-14T05:16:35.309Z,15.10
2018-09-14T05:19:04.619Z,14.90
2018-09-14T05:21:33.839Z,14.90
2018-09-14T05:24:03.901Z,14.90
2018-09-14T05:26:33.086Z,14.90
2018-09-14T05:29:02.331Z,14.90
2018-09-14T05:31:31.580Z,14.90
2018-09-14T05:34:00.870Z,14.90
2018-09-14T05:36:30.057Z,14.90
2018-09-14T05:39:00.008Z,14.80
2018-09-14T05:41:29.469Z,14.90
2018-09-14T05:43:59.056Z,14.90
2018-09-14T05:46:28.470Z,14.80
2018-09-14T05:48:57.983Z,14.80
2018-09-14T05:51:27.441Z,14.80
2018-09-14T05:53:57.153Z,14.90
2018-09-14T05:56:26.703Z,14.90
2018-09-14T05:58:56.087Z,15.00
2018-09-14T06:01:25.441Z,14.90
2018-09-14T06:03:55.863Z,15.00
2018-09-14T06:06:25.162Z,15.00
2018-09-14T06:08:54.776Z,15.10
2018-09-14T06:11:24.167Z,15.10
2018-09-14T06:13:53.574Z,15.20
2018-09-14T06:16:22.928Z,15.20
2018-09-14T06:18:53.084Z,15.20
2018-09-14T06:21:22.857Z,15.20
2018-09-14T06:23:53.234Z,15.20
2018-09-14T06:26:22.744Z,15.30
2018-09-14T06:28:52.767Z,15.40
2018-09-14T06:31:21.948Z,15.40
2018-09-14T06:33:51.499Z,15.50
2018-09-14T06:36:20.782Z,15.60
2018-09-14T06:38:50.555Z,15.60
2018-09-14T06:41:19.974Z,15.70
2018-09-14T06:43:51.428Z,15.70
2018-09-14T06:46:20.863Z,15.70
2018-09-14T06:48:50.436Z,15.80
2018-09-14T06:51:19.910Z,15.80
2018-09-14T06:53:49.448Z,15.90
2018-09-14T06:56:18.917Z,16.00
2018-09-14T06:58:48.273Z,16.00
2018-09-14T07:01:20.627Z,16.00
2018-09-14T07:03:50.912Z,16.00
2018-09-14T07:06:21.524Z,16.10
2018-09-14T07:08:52.261Z,16.20
2018-09-14T07:11:23.236Z,16.40
2018-09-14T07:13:54.078Z,16.50
2018-09-14T07:16:24.230Z,16.60
2018-09-14T07:18:53.431Z,16.70
2018-09-14T07:21:22.666Z,16.70
2018-09-14T07:23:51.995Z,16.80
2018-09-14T07:26:21.281Z,16.90
2018-09-14T07:28:50.785Z,17.00
2018-09-14T07:31:20.235Z,16.90
2018-09-14T07:33:49.676Z,17.10
2018-09-14T07:36:18.921Z,17.10
2018-09-14T07:38:48.309Z,17.20
2018-09-14T07:41:17.687Z,17.30
2018-09-14T07:43:48.014Z,17.30
2018-09-14T07:46:17.224Z,17.30
2018-09-14T07:48:47.143Z,17.30
2018-09-14T07:51:16.496Z,17.20
2018-09-14T07:53:45.818Z,17.20
2018-09-14T07:56:15.142Z,17.30
2018-09-14T07:58:44.439Z,17.40
2018-09-14T08:01:13.709Z,17.40
2018-09-14T08:03:43.439Z,17.50
2018-09-14T08:06:12.877Z,17.50
2018-09-14T08:08:42.121Z,17.70
2018-09-14T08:11:11.350Z,18.00
2018-09-14T08:13:40.581Z,18.10
2018-09-14T08:16:09.822Z,18.30
2018-09-14T08:18:39.068Z,18.40
2018-09-14T08:21:08.383Z,18.40
2018-09-14T08:23:37.649Z,18.40
2018-09-14T08:26:06.994Z,18.20
2018-09-14T08:28:36.304Z,18.10
2018-09-14T08:31:05.671Z,18.20
2018-09-14T08:33:36.059Z,18.30
2018-09-14T08:36:05.421Z,18.40
2018-09-14T08:38:34.714Z,18.60
2018-09-14T08:41:04.504Z,18.70
2018-09-14T08:43:34.106Z,18.80
2018-09-14T08:46:03.409Z,18.80
2018-09-14T08:48:32.660Z,18.80
2018-09-14T08:51:02.200Z,18.80
2018-09-14T08:53:31.621Z,18.90
2018-09-14T08:56:00.879Z,18.90
2018-09-14T08:58:30.415Z,18.90
2018-09-14T09:01:00.260Z,18.90
2018-09-14T09:03:31.205Z,19.00
2018-09-14T09:06:00.473Z,19.00
2018-09-14T09:08:29.934Z,19.00
2018-09-14T09:10:59.355Z,19.20
2018-09-14T09:13:29.796Z,19.30
2018-09-14T09:15:59.464Z,19.20
2018-09-14T09:18:29.170Z,19.00
2018-09-14T09:20:58.565Z,18.90
2018-09-14T09:23:29.100Z,19.00
2018-09-14T09:25:58.525Z,19.10
2018-09-14T09:28:28.747Z,19.30
2018-09-14T09:30:58.899Z,19.60
2018-09-14T09:33:30.391Z,19.80
2018-09-14T09:36:02.981Z,19.80
2018-09-14T09:38:46.121Z,19.80
2018-09-14T09:41:23.742Z,20.10
2018-09-14T09:43:53.433Z,20.40
2018-09-14T09:46:27.389Z,20.70
2018-09-14T09:49:01.543Z,20.60
2018-09-14T09:51:31.521Z,20.60
2018-09-14T09:54:01.357Z,20.60
2018-09-14T09:56:32.696Z,20.40
2018-09-14T09:59:02.104Z,20.20
2018-09-14T10:02:01.845Z,20.10
2018-09-14T10:04:35.538Z,19.90
2018-09-14T10:07:04.792Z,19.50
2018-09-14T10:09:36.091Z,19.50
2018-09-14T10:12:05.626Z,19.60
2018-09-14T10:14:37.191Z,19.80
2018-09-14T10:17:06.519Z,19.90
2018-09-14T10:19:36.220Z,20.10
2018-09-14T10:22:09.865Z,20.40
2018-09-14T10:27:29.848Z,20.70
2018-09-14T10:29:59.207Z,21.00
2018-09-14T10:32:28.501Z,21.00
2018-09-14T10:34:58.900Z,21.00
2018-09-14T10:37:28.128Z,20.90
2018-09-14T10:39:58.277Z,21.10
2018-09-14T10:42:27.624Z,21.40
2018-09-14T10:45:03.319Z,21.50
2018-09-14T10:47:32.740Z,21.80
2018-09-14T10:50:03.328Z,21.90
2018-09-14T10:52:32.723Z,21.80
2018-09-14T10:55:02.201Z,22.00
2018-09-14T10:57:31.599Z,22.10
2018-09-14T11:00:01.060Z,22.20
2018-09-14T11:02:30.519Z,22.20
2018-09-14T11:06:04.596Z,22.00
2018-09-14T11:08:34.082Z,22.00
2018-09-14T11:11:03.492Z,22.00
2018-09-14T11:13:33.049Z,22.00
2018-09-14T11:16:02.494Z,22.00
2018-09-14T11:18:32.985Z,22.00
2018-09-14T11:21:03.426Z,22.00
2018-09-14T11:23:35.727Z,21.90
2018-09-14T11:26:05.385Z,21.90
2018-09-14T11:28:34.864Z,21.80
2018-09-14T11:31:04.268Z,21.70
2018-09-14T11:33:37.563Z,21.70
2018-09-14T11:36:07.191Z,21.60
2018-09-14T11:38:41.387Z,21.50
2018-09-14T11:41:12.148Z,21.50
2018-09-14T11:43:42.483Z,21.40
2018-09-14T11:46:12.349Z,21.10
2018-09-14T11:48:48.297Z,21.00
2018-09-14T11:51:20.206Z,20.90
2018-09-14T11:53:58.801Z,21.10
2018-09-14T11:56:32.376Z,21.10
2018-09-14T11:59:01.887Z,21.10
2018-09-14T12:01:36.556Z,21.20
2018-09-14T12:04:17.756Z,21.30
2018-09-14T12:06:46.980Z,21.40
2018-09-14T12:09:16.441Z,21.30
2018-09-14T12:11:45.907Z,21.30
2018-09-14T12:14:24.025Z,21.30
2018-09-14T12:17:01.140Z,21.40
2018-09-14T12:19:31.169Z,21.50
2018-09-14T12:22:05.545Z,21.40
2018-09-14T12:24:39.235Z,21.20
2018-09-14T12:27:08.862Z,21.40
2018-09-14T12:29:44.880Z,21.30
2018-09-14T12:32:15.287Z,21.30
2018-09-14T12:34:44.702Z,21.20
2018-09-14T12:37:14.281Z,21.20
2018-09-14T12:39:46.305Z,21.20
2018-09-14T12:42:17.578Z,21.10
2018-09-14T12:44:52.416Z,21.10
2018-09-14T12:47:28.496Z,21.00
2018-09-14T12:49:59.061Z,21.10
2018-09-14T12:52:34.897Z,21.30
2018-09-14T12:55:12.006Z,21.50
2018-09-14T12:57:41.379Z,21.60
2018-09-14T13:03:28.304Z,21.60
2018-09-14T13:06:08.706Z,21.50
2018-09-14T13:08:58.940Z,21.50
2018-09-14T13:11:34.878Z,21.70
2018-09-14T13:14:25.902Z,21.90
2018-09-14T13:16:59.676Z,22.20
2018-09-14T13:19:31.413Z,22.40
2018-09-14T13:22:14.868Z,22.50
2018-09-14T13:24:56.235Z,22.70
2018-09-14T13:27:30.863Z,22.80
2018-09-14T13:30:00.265Z,23.00
2018-09-14T13:32:30.055Z,23.10
2018-09-14T13:37:55.946Z,23.60
2018-09-14T13:40:27.630Z,23.80
2018-09-14T13:42:57.653Z,24.50
2018-09-14T13:45:27.584Z,25.70
2018-09-14T13:47:57.043Z,27.10
2018-09-14T13:50:26.477Z,28.40
2018-09-14T13:52:56.025Z,29.30
2018-09-14T13:55:25.684Z,30.10
2018-09-14T13:57:55.196Z,30.90
2018-09-14T14:00:24.730Z,31.70
2018-09-14T14:02:55.478Z,31.50
2018-09-14T14:05:25.000Z,30.90
2018-09-14T14:07:57.164Z,30.10
2018-09-14T14:10:31.840Z,29.20
2018-09-14T14:13:02.729Z,29.00
2018-09-14T14:15:32.195Z,29.50
2018-09-14T14:18:02.619Z,30.00
2018-09-14T14:20:32.364Z,29.60
2018-09-14T14:23:07.839Z,28.40
2018-09-14T14:25:43.058Z,27.70
2018-09-14T14:28:12.342Z,26.80
2018-09-14T14:30:41.787Z,26.10
2018-09-14T14:33:22.986Z,25.80
2018-09-14T14:35:58.166Z,25.50
2018-09-14T14:38:27.532Z,25.40
2018-09-14T14:40:56.996Z,26.10
2018-09-14T14:43:26.515Z,26.50
2018-09-14T14:45:56.574Z,26.80
2018-09-14T14:48:25.974Z,27.60
2018-09-14T14:50:55.876Z,28.30
2018-09-14T14:53:25.203Z,28.30
2018-09-14T14:55:54.726Z,27.50
2018-09-14T14:58:24.209Z,27.80
2018-09-14T15:01:01.199Z,27.80
2018-09-14T15:03:49.722Z,27.40
2018-09-14T15:06:22.621Z,26.90
2018-09-14T15:08:52.463Z,26.60
2018-09-14T15:11:21.991Z,26.50
2018-09-14T15:16:47.372Z,25.70
2018-09-14T15:19:16.624Z,25.20
2018-09-14T15:21:46.375Z,25.00
2018-09-14T15:24:18.521Z,25.40
2018-09-14T15:26:47.894Z,25.70
2018-09-14T15:29:17.299Z,25.70
2018-09-14T15:31:47.071Z,26.30
2018-09-14T15:34:17.550Z,25.80
2018-09-14T15:36:46.832Z,25.50
2018-09-14T15:39:16.088Z,25.20
2018-09-14T15:41:45.474Z,24.90
2018-09-14T15:44:15.845Z,24.50
2018-09-14T15:46:45.257Z,24.10
2018-09-14T15:49:14.520Z,23.70
2018-09-14T15:51:44.129Z,23.30
2018-09-14T15:54:15.668Z,23.00
2018-09-14T15:56:45.190Z,22.70
2018-09-14T15:59:14.733Z,22.50
2018-09-14T16:01:44.167Z,22.20
2018-09-14T16:04:19.680Z,22.00
2018-09-14T16:06:49.768Z,21.90
2018-09-14T16:09:26.285Z,21.90
2018-09-14T16:11:56.168Z,21.90
2018-09-14T16:14:27.714Z,21.90
2018-09-14T16:16:57.382Z,22.00
2018-09-14T16:19:27.285Z,22.00
2018-09-14T16:21:57.006Z,21.80
2018-09-14T16:24:27.681Z,21.70
2018-09-14T16:26:57.405Z,21.50
2018-09-14T16:29:27.124Z,21.20
2018-09-14T16:31:57.921Z,21.10
2018-09-14T16:34:30.291Z,21.00
2018-09-14T17:48:25.181Z,19.50
2018-09-14T17:57:23.906Z,19.50
2018-09-14T18:05:54.656Z,19.60
2018-09-14T18:08:23.911Z,19.50
2018-09-14T18:10:53.200Z,19.50
2018-09-14T18:13:26.671Z,19.30
2018-09-14T18:15:55.925Z,19.30
2018-09-14T18:18:25.158Z,19.10
2018-09-14T18:21:01.197Z,19.10
2018-09-14T18:23:47.019Z,19.00
2018-09-14T18:26:18.047Z,19.00
2018-09-14T18:28:52.489Z,19.10
2018-09-14T18:31:22.251Z,19.10
2018-09-14T18:33:54.492Z,18.90
2018-09-14T18:36:23.923Z,18.90
2018-09-14T18:58:15.475Z,18.90
2018-09-14T19:00:45.373Z,18.90
2018-09-14T19:06:02.863Z,18.80
2018-09-14T19:08:38.365Z,18.90
2018-09-14T19:11:09.026Z,18.90
2018-09-14T19:13:38.330Z,18.80
2018-09-14T19:16:08.423Z,18.70
2018-09-14T19:18:38.611Z,18.60
2018-09-14T19:21:07.893Z,18.60
2018-09-14T19:23:38.196Z,18.70
2018-09-14T19:26:07.499Z,18.60
2018-09-14T19:28:36.709Z,18.50
2018-09-14T19:31:06.559Z,18.50
2018-09-14T19:33:35.917Z,18.50
2018-09-14T19:36:05.409Z,18.30
2018-09-14T19:38:34.943Z,18.30
2018-09-14T19:41:04.069Z,18.30
2018-09-14T19:43:33.569Z,18.30
2018-09-14T19:46:03.727Z,18.30
2018-09-14T19:48:33.159Z,18.10
2018-09-14T19:51:02.613Z,18.20
2018-09-14T19:53:33.969Z,18.10
2018-09-14T19:56:03.225Z,18.20
2018-09-14T19:58:32.764Z,18.10
2018-09-14T20:01:02.211Z,18.00
2018-09-14T20:03:35.357Z,17.80
2018-09-14T20:06:04.942Z,17.80
2018-09-14T20:08:34.414Z,17.80
2018-09-14T20:11:03.907Z,17.90
2018-09-14T20:13:34.589Z,18.00
2018-09-14T20:16:04.630Z,18.00
2018-09-14T20:18:34.430Z,18.00
2018-09-14T20:21:04.848Z,18.10
2018-09-14T20:23:34.862Z,18.10
2018-09-14T20:26:04.140Z,18.00
2018-09-14T20:28:33.940Z,18.00
2018-09-14T20:31:03.606Z,17.90
2018-09-14T20:33:34.657Z,17.90
2018-09-14T20:36:03.981Z,17.80
2018-09-14T20:38:33.619Z,17.80
2018-09-14T20:41:03.632Z,17.70
2018-09-14T20:43:36.688Z,17.50
2018-09-14T20:46:06.159Z,17.30
2018-09-14T20:48:36.227Z,17.20
2018-09-14T20:51:07.714Z,17.10
2018-09-14T20:53:39.942Z,17.10
2018-09-14T20:56:10.643Z,17.20
2018-09-14T20:58:40.181Z,17.20
2018-09-14T21:01:09.693Z,17.10
2018-09-14T21:03:40.267Z,17.10
2018-09-14T21:06:10.069Z,17.20
2018-09-14T21:08:40.408Z,17.20
2018-09-14T21:11:09.886Z,17.20
2018-09-14T21:13:45.313Z,17.30
2018-09-14T21:16:16.953Z,17.40
2018-09-14T21:18:50.481Z,17.50
2018-09-14T21:21:21.686Z,17.50
2018-09-14T21:23:54.887Z,17.50
2018-09-14T21:26:24.751Z,17.40
2018-09-14T21:28:58.609Z,17.40
2018-09-14T21:31:31.424Z,17.40
2018-09-14T21:34:06.101Z,17.40
2018-09-14T21:36:35.715Z,17.50
2018-09-14T21:39:18.365Z,17.50
2018-09-14T21:41:49.657Z,17.50
2018-09-14T21:44:22.101Z,17.60
2018-09-14T21:46:51.491Z,17.60
2018-09-14T21:49:22.228Z,17.60
2018-09-14T21:51:51.907Z,17.70
2018-09-14T21:54:22.863Z,17.70
2018-09-14T21:56:52.257Z,17.60
2018-09-14T21:59:21.695Z,17.60
2018-09-14T22:01:50.946Z,17.50
2018-09-14T22:04:23.697Z,17.60
2018-09-14T22:06:53.134Z,17.50
2018-09-14T22:09:22.408Z,17.50
2018-09-14T22:11:52.484Z,17.50
2018-09-14T22:14:26.846Z,17.50
2018-09-14T22:17:00.343Z,17.50
2018-09-14T22:19:30.936Z,17.50
2018-09-14T22:22:01.544Z,17.40
2018-09-14T22:24:31.037Z,17.40
2018-09-14T22:27:00.456Z,17.50
2018-09-14T22:29:30.798Z,17.50
2018-09-14T22:32:00.591Z,17.40
2018-09-14T22:34:30.102Z,17.40
2018-09-14T22:36:59.531Z,17.40
2018-09-14T22:39:29.628Z,17.40
2018-09-14T22:42:00.205Z,17.40
2018-09-14T22:44:29.764Z,17.40
2018-09-14T22:46:59.893Z,17.40
2018-09-14T22:49:29.144Z,17.30
2018-09-14T22:51:58.634Z,17.40
2018-09-14T22:54:28.459Z,17.40
2018-09-14T22:56:57.886Z,17.40
2018-09-14T22:59:27.273Z,17.40
2018-09-14T23:01:56.931Z,17.40
2018-09-14T23:04:26.394Z,17.40
2018-09-14T23:06:55.629Z,17.20
2018-09-14T23:09:25.155Z,17.20
2018-09-14T23:11:54.541Z,17.10
2018-09-14T23:14:29.648Z,17.00
2018-09-14T23:16:59.343Z,17.00
2018-09-14T23:19:29.189Z,16.90
2018-09-14T23:21:58.676Z,16.90
2018-09-14T23:24:28.388Z,16.80
2018-09-14T23:26:57.841Z,16.80
2018-09-14T23:29:27.087Z,16.70
2018-09-14T23:31:56.488Z,16.80
2018-09-14T23:34:26.016Z,16.80
2018-09-14T23:36:55.248Z,16.90
2018-09-14T23:39:24.738Z,16.80
2018-09-14T23:41:54.104Z,16.70
2018-09-14T23:44:23.483Z,16.70
2018-09-14T23:46:52.809Z,16.40
2018-09-14T23:49:22.189Z,16.40
2018-09-14T23:51:51.584Z,16.30
2018-09-14T23:54:21.124Z,16.10
2018-09-14T23:56:50.833Z,16.10
2018-09-14T23:59:20.210Z,16.20
